Observation data for Andrews on 03/11/2018      Previous  Date  Next       Current Mesonet Observations  Soil Data  Daily Summary Page  Observations in Plain Language
KANS 110600Z 28004KT 19/M10 A2989 RMK A01 T01921098  RH  013%=      5-min Rain = 0
KANS 110605Z 30003KT 19/M10 A2989 RMK A01 T01911098  RH  013%=      5-min Rain = 0
KANS 110610Z 30003KT 19/M10 A2989 RMK A01 T01921098  RH  013%=      5-min Rain = 0
KANS 110615Z 33004KT 19/M10 A2989 RMK A01 T01921096  RH  013%=      5-min Rain = 0
KANS 110620Z 31005KT 19/M09 A2989 RMK A01 T01881094  RH  014%=      5-min Rain = 0
KANS 110625Z 31005KT 19/M09 A2989 RMK A01 T01851094  RH  014%=      5-min Rain = 0
KANS 110630Z 32005KT 19/M09 A299 RMK A01 T01851093  RH  014%=      5-min Rain = 0
KANS 110635Z 31005KT 18/M09 A299 RMK A01 T01841092  RH  015%=      5-min Rain = 0
KANS 110640Z 30006KT 19/M09 A299 RMK A01 T01861091  RH  015%=      5-min Rain = 0
KANS 110645Z 31005KT 19/M09 A299 RMK A01 T01891091  RH  014%=      5-min Rain = 0
KANS 110650Z 31006KT 19/M09 A299 RMK A01 T01901090  RH  014%=      5-min Rain = 0
KANS 110655Z 31006KT 19/M09 A299 RMK A01 T01911086  RH  015%=      5-min Rain = 0
KANS 110700Z 29005G10KT 19/M08 A2991 RMK A01 T01921078  RH  015%=      5-min Rain = 0
KANS 110705Z 24005KT 19/M08 A2991 RMK A01 T01901076  RH  016%=      5-min Rain = 0
KANS 110710Z 24006KT 18/M08 A2991 RMK A01 T01831076  RH  017%=      5-min Rain = 0
KANS 110715Z 25008KT 18/M08 A2991 RMK A01 T01811079  RH  016%=      5-min Rain = 0
KANS 110720Z 25008KT 18/M08 A2991 RMK A01 T01841078  RH  016%=      5-min Rain = 0
KANS 110725Z 27007KT 19/M08 A2991 RMK A01 T01851077  RH  016%=      5-min Rain = 0
KANS 110730Z 26008KT 19/M08 A2991 RMK A01 T01891075  RH  016%=      5-min Rain = 0
KANS 110735Z 27008KT 19/M07 A2991 RMK A01 T01881072  RH  017%=      5-min Rain = 0
KANS 110740Z 29009KT 19/M07 A2991 RMK A01 T01921068  RH  017%=      5-min Rain = 0
KANS 110745Z 30010KT 20/M07 A2991 RMK A01 T01971066  RH  017%=      5-min Rain = 0
KANS 110750Z 32010KT 20/M06 A2991 RMK A01 T02001064  RH  016%=      5-min Rain = 0
KANS 110755Z 32009KT 20/M06 A2991 RMK A01 T02001062  RH  017%=      5-min Rain = 0
KANS 110800Z 32012G26KT 20/M06 A2992 RMK A01 T01981060  RH  017%=      5-min Rain = 0
KANS 110805Z 36018G28KT 19/M07 A2994 RMK A01 T01911073  RH  016%=      5-min Rain = 0
KANS 110810Z 01018G25KT 18/M08 A2995 RMK A01 T01811083  RH  016%=      5-min Rain = 0
KANS 110815Z 00018G24KT 17/M09 A2995 RMK A01 T01731090  RH  016%=      5-min Rain = 0
KANS 110820Z 36019G28KT 17/M09 A2995 RMK A01 T01651086  RH  017%=      5-min Rain = 0
KANS 110825Z 00022G27KT 16/M07 A2995 RMK A01 T01581071  RH  020%=      5-min Rain = 0
KANS 110830Z 01021G29KT 15/M05 A2995 RMK A01 T01541052  RH  024%=      5-min Rain = 0
KANS 110835Z 01021G28KT 15/M03 A2995 RMK A01 T01511031  RH  029%=      5-min Rain = 0
KANS 110840Z 01022G28KT 15/M01 A2995 RMK A01 T01501013  RH  033%=      5-min Rain = 0
KANS 110845Z 01021G28KT 15/M00 A2996 RMK A01 T01491001  RH  036%=      5-min Rain = 0
KANS 110850Z 01020G26KT 15/00 A2996 RMK A01 T01470004  RH  038%=      5-min Rain = 0
KANS 110855Z 01020G29KT 15/M00 A2996 RMK A01 T01451003  RH  037%=      5-min Rain = 0
KANS 110900Z 01023G30KT 14/M03 A2996 RMK A01 T01411034  RH  030%=      5-min Rain = 0
KANS 110905Z 01024G29KT 14/M04 A2996 RMK A01 T01371041  RH  029%=      5-min Rain = 0
KANS 110910Z 01023G32KT 14/M04 A2997 RMK A01 T01351041  RH  030%=      5-min Rain = 0
KANS 110915Z 01022G30KT 13/M04 A2997 RMK A01 T01331041  RH  030%=      5-min Rain = 0
KANS 110920Z 01022G29KT 13/M04 A2998 RMK A01 T01321039  RH  031%=      5-min Rain = 0
KANS 110925Z 01022G28KT 13/M04 A2998 RMK A01 T01311038  RH  031%=      5-min Rain = 0
KANS 110930Z 02024G33KT 13/M04 A2998 RMK A01 T01301035  RH  032%=      5-min Rain = 0
KANS 110935Z 02019G25KT 13/M04 A2999 RMK A01 T01301037  RH  032%=      5-min Rain = 0
KANS 110940Z 03021G30KT 13/M04 A2999 RMK A01 T01301035  RH  032%=      5-min Rain = 0
KANS 110945Z 03021G31KT 13/M04 A30 RMK A01 T01311035  RH  032%=      5-min Rain = 0
KANS 110950Z 03020G32KT 13/M04 A30 RMK A01 T01311038  RH  031%=      5-min Rain = 0
KANS 110955Z 03023G30KT 13/M04 A3001 RMK A01 T01301041  RH  030%=      5-min Rain = 0
KANS 111000Z 03022G33KT 13/M05 A3002 RMK A01 T01281045  RH  030%=      5-min Rain = 0
KANS 111005Z 03022G29KT 13/M05 A3002 RMK A01 T01271049  RH  029%=      5-min Rain = 0
KANS 111010Z 03020G28KT 13/M05 A3003 RMK A01 T01261053  RH  029%=      5-min Rain = 0
KANS 111015Z 03022G30KT 13/M05 A3003 RMK A01 T01251054  RH  029%=      5-min Rain = 0
KANS 111020Z 03022G32KT 12/M06 A3003 RMK A01 T01241055  RH  028%=      5-min Rain = 0
KANS 111025Z 04022G30KT 12/M06 A3003 RMK A01 T01231055  RH  029%=      5-min Rain = 0
KANS 111030Z 03022G29KT 12/M06 A3003 RMK A01 T01221055  RH  029%=      5-min Rain = 0
KANS 111035Z 03023G34KT 12/M05 A3004 RMK A01 T01211054  RH  029%=      5-min Rain = 0
KANS 111040Z 03020G30KT 12/M05 A3003 RMK A01 T01201054  RH  030%=      5-min Rain = 0
KANS 111045Z 03016G21KT 12/M05 A3004 RMK A01 T01181054  RH  030%=      5-min Rain = 0
KANS 111050Z 03020G26KT 12/M05 A3004 RMK A01 T01171052  RH  030%=      5-min Rain = 0
KANS 111055Z 03018G27KT 12/M05 A3004 RMK A01 T01171052  RH  031%=      5-min Rain = 0
KANS 111100Z 04022G31KT 12/M05 A3005 RMK A01 T01171050  RH  031%=      5-min Rain = 0
KANS 111105Z 03019G26KT 12/M05 A3005 RMK A01 T01161049  RH  031%=      5-min Rain = 0
KANS 111110Z 03014G21KT 12/M05 A3006 RMK A01 T01151049  RH  032%=      5-min Rain = 0
KANS 111115Z 03016G22KT 11/M05 A3006 RMK A01 T01131049  RH  032%=      5-min Rain = 0
KANS 111120Z 02015G20KT 11/M05 A3006 RMK A01 T01131048  RH  032%=      5-min Rain = 0
KANS 111125Z 02015G20KT 11/M05 A3007 RMK A01 T01111048  RH  033%=      5-min Rain = 0
KANS 111130Z 03016G23KT 11/M05 A3008 RMK A01 T01111046  RH  033%=      5-min Rain = 0
KANS 111135Z 03018G24KT 11/M05 A3007 RMK A01 T01111045  RH  033%=      5-min Rain = 0
KANS 111140Z 03018G24KT 11/M05 A3008 RMK A01 T01111045  RH  033%=      5-min Rain = 0
KANS 111145Z 03018G24KT 11/M05 A3008 RMK A01 T01121045  RH  033%=      5-min Rain = 0
KANS 111150Z 03015G22KT 11/M05 A3009 RMK A01 T01121046  RH  033%=      5-min Rain = 0
KANS 111155Z 03018G25KT 11/M05 A3009 RMK A01 T01121047  RH  033%=      5-min Rain = 0
KANS 111200Z 03016G23KT 11/M05 A301 RMK A01 T01121048  RH  033%=      5-min Rain = 0
KANS 111205Z 03015G23KT 11/M05 A301 RMK A01 T01111048  RH  033%=      5-min Rain = 0
KANS 111210Z 03015G21KT 11/M05 A301 RMK A01 T01111048  RH  033%=      5-min Rain = 0
KANS 111215Z 03015G21KT 11/M05 A3011 RMK A01 T01111048  RH  033%=      5-min Rain = 0
KANS 111220Z 03015G21KT 11/M05 A3012 RMK A01 T01121049  RH  033%=      5-min Rain = 0
KANS 111225Z 03011G16KT 11/M05 A3012 RMK A01 T01111049  RH  033%=      5-min Rain = 0
KANS 111230Z 03012G17KT 11/M05 A3013 RMK A01 T01111049  RH  033%=      5-min Rain = 0
KANS 111235Z 03015G20KT 11/M05 A3013 RMK A01 T01111050  RH  032%=      5-min Rain = 0
KANS 111240Z 03015KT 11/M05 A3013 RMK A01 T01111051  RH  032%=      5-min Rain = 0
KANS 111245Z 03015G20KT 11/M05 A3013 RMK A01 T01111053  RH  031%=      5-min Rain = 0
KANS 111250Z 03014G20KT 11/M05 A3014 RMK A01 T01111053  RH  031%=      5-min Rain = 0
KANS 111255Z 02011KT 11/M05 A3015 RMK A01 T01111053  RH  032%=      5-min Rain = 0
KANS 111300Z 02013G18KT 11/M05 A3015 RMK A01 T01101054  RH  032%=      5-min Rain = 0
KANS 111305Z 03014G22KT 11/M06 A3015 RMK A01 T01101056  RH  031%=      5-min Rain = 0
KANS 111310Z 03014G21KT 11/M06 A3016 RMK A01 T01101059  RH  030%=      5-min Rain = 0
KANS 111315Z 02014G19KT 11/M06 A3016 RMK A01 T01101061  RH  030%=      5-min Rain = 0
KANS 111320Z 03017G24KT 11/M06 A3016 RMK A01 T01091063  RH  030%=      5-min Rain = 0
KANS 111325Z 02018G24KT 11/M06 A3016 RMK A01 T01091063  RH  029%=      5-min Rain = 0
KANS 111330Z 03017G22KT 11/M06 A3017 RMK A01 T01091064  RH  029%=      5-min Rain = 0
KANS 111335Z 02015KT 11/M06 A3017 RMK A01 T01091064  RH  029%=      5-min Rain = 0
KANS 111340Z 02017G26KT 11/M06 A3017 RMK A01 T01091061  RH  030%=      5-min Rain = 0
KANS 111345Z 02020G26KT 11/M06 A3017 RMK A01 T01081057  RH  031%=      5-min Rain = 0
KANS 111350Z 03019G25KT 11/M06 A3018 RMK A01 T01081056  RH  032%=      5-min Rain = 0
KANS 111355Z 03019G25KT 11/M06 A3018 RMK A01 T01081055  RH  032%=      5-min Rain = 0
KANS 111400Z 03018G24KT 11/M06 A3018 RMK A01 T01081055  RH  032%=      5-min Rain = 0
KANS 111405Z 03016G23KT 11/M06 A3019 RMK A01 T01081055  RH  032%=      5-min Rain = 0
KANS 111410Z 03017G26KT 11/M06 A3019 RMK A01 T01081055  RH  032%=      5-min Rain = 0
KANS 111415Z 03018G24KT 11/M06 A302 RMK A01 T01081056  RH  032%=      5-min Rain = 0
KANS 111420Z 02018G24KT 11/M06 A302 RMK A01 T01081056  RH  031%=      5-min Rain = 0
KANS 111425Z 03021G28KT 11/M06 A302 RMK A01 T01081058  RH  031%=      5-min Rain = 0
KANS 111430Z 03020G27KT 11/M06 A302 RMK A01 T01081060  RH  031%=      5-min Rain = 0
KANS 111435Z 03019G25KT 11/M06 A302 RMK A01 T01081060  RH  031%=      5-min Rain = 0
KANS 111440Z 03016G25KT 11/M06 A3021 RMK A01 T01081060  RH  031%=      5-min Rain = 0
KANS 111445Z 03020G26KT 11/M06 A3022 RMK A01 T01071062  RH  030%=      5-min Rain = 0
KANS 111450Z 03018G26KT 11/M06 A3022 RMK A01 T01071062  RH  030%=      5-min Rain = 0
KANS 111455Z 03016G21KT 11/M06 A3022 RMK A01 T01081060  RH  031%=      5-min Rain = 0
KANS 111500Z 02016G21KT 11/M06 A3023 RMK A01 T01091059  RH  031%=      5-min Rain = 0
KANS 111505Z 01018G23KT 11/M06 A3023 RMK A01 T01091059  RH  031%=      5-min Rain = 0
KANS 111510Z 02016KT 11/M06 A3023 RMK A01 T01101058  RH  031%=      5-min Rain = 0
KANS 111515Z 02013G18KT 11/M06 A3023 RMK A01 T01101057  RH  031%=      5-min Rain = 0
KANS 111520Z 02015G21KT 11/M06 A3023 RMK A01 T01111057  RH  031%=      5-min Rain = 0
KANS 111525Z 01016G21KT 11/M06 A3024 RMK A01 T01091059  RH  031%=      5-min Rain = 0
KANS 111530Z 01016G22KT 11/M06 A3024 RMK A01 T01081058  RH  031%=      5-min Rain = 0
KANS 111535Z 02015G20KT 11/M06 A3025 RMK A01 T01091060  RH  030%=      5-min Rain = 0
KANS 111540Z 03017G24KT 11/M06 A3025 RMK A01 T01091063  RH  029%=      5-min Rain = 0
KANS 111545Z 03019KT 11/M07 A3025 RMK A01 T01091066  RH  029%=      5-min Rain = 0
KANS 111550Z 03016G21KT 11/M07 A3025 RMK A01 T01101066  RH  029%=      5-min Rain = 0
KANS 111555Z 03015KT 11/M06 A3026 RMK A01 T01131064  RH  029%=      5-min Rain = 0
KANS 111600Z 02017KT 11/M07 A3026 RMK A01 T01131069  RH  028%=      5-min Rain = 0
KANS 111605Z 04016G22KT 11/M08 A3026 RMK A01 T01121077  RH  026%=      5-min Rain = 0
KANS 111610Z 03015G20KT 11/M07 A3027 RMK A01 T01131074  RH  027%=      5-min Rain = 0
KANS 111615Z 02016KT 11/M07 A3027 RMK A01 T01131071  RH  027%=      5-min Rain = 0
KANS 111620Z 02018G25KT 11/M08 A3027 RMK A01 T01121075  RH  026%=      5-min Rain = 0
KANS 111625Z 02016G24KT 11/M08 A3027 RMK A01 T01121079  RH  026%=      5-min Rain = 0
KANS 111630Z 03019G24KT 11/M09 A3027 RMK A01 T01121086  RH  024%=      5-min Rain = 0
KANS 111635Z 03015G23KT 11/M09 A3027 RMK A01 T01131086  RH  024%=      5-min Rain = 0
KANS 111640Z 03016KT 11/M08 A3027 RMK A01 T01131083  RH  025%=      5-min Rain = 0
KANS 111645Z 02014G19KT 11/M08 A3027 RMK A01 T01141080  RH  025%=      5-min Rain = 0
KANS 111650Z 00015KT 11/M07 A3027 RMK A01 T01141072  RH  027%=      5-min Rain = 0
KANS 111655Z 01016G21KT 11/M08 A3028 RMK A01 T01141076  RH  026%=      5-min Rain = 0
KANS 111700Z 02019G24KT 11/M09 A3028 RMK A01 T01121090  RH  024%=      5-min Rain = 0
KANS 111705Z 02017G23KT 11/M09 A3028 RMK A01 T01121094  RH  023%=      5-min Rain = 0
KANS 111710Z 03015KT 11/M09 A3028 RMK A01 T01131090  RH  023%=      5-min Rain = 0
KANS 111715Z 01015KT 11/M08 A3028 RMK A01 T01141081  RH  025%=      5-min Rain = 0
KANS 111720Z 00016G21KT 11/M08 A3028 RMK A01 T01121084  RH  025%=      5-min Rain = 0
KANS 111725Z 02014KT 11/M08 A3028 RMK A01 T01131083  RH  025%=      5-min Rain = 0
KANS 111730Z 01016G22KT 11/M09 A3029 RMK A01 T01121086  RH  024%=      5-min Rain = 0
KANS 111735Z 02015KT 11/M09 A3029 RMK A01 T01091088  RH  024%=      5-min Rain = 0
KANS 111740Z 02013G18KT 11/M09 A3029 RMK A01 T01101090  RH  024%=      5-min Rain = 0
KANS 111745Z 02015G20KT 11/M09 A3029 RMK A01 T01071093  RH  024%=      5-min Rain = 0
KANS 111750Z 02014KT 11/M10 A303 RMK A01 T01071097  RH  023%=      5-min Rain = 0
KANS 111755Z 02014KT 11/M11 A303 RMK A01 T01071109  RH  021%=      5-min Rain = 0
KANS 111800Z 03013KT 11/M11 A303 RMK A01 T01061112  RH  021%=      5-min Rain = 0
KANS 111805Z 03012G17KT 11/M11 A303 RMK A01 T01071113  RH  020%=      5-min Rain = 0
KANS 111810Z 03014KT 11/M11 A303 RMK A01 T01071113  RH  020%=      5-min Rain = 0
KANS 111815Z 03012KT 11/M11 A3029 RMK A01 T01071114  RH  020%=      5-min Rain = 0
KANS 111820Z 03013G18KT 11/M12 A3029 RMK A01 T01081115  RH  020%=      5-min Rain = 0
KANS 111825Z 03013KT 11/M12 A303 RMK A01 T01091117  RH  020%=      5-min Rain = 0
KANS 111830Z 02013G18KT 11/M12 A303 RMK A01 T01081115  RH  020%=      5-min Rain = 0
KANS 111835Z 03014KT 11/M12 A303 RMK A01 T01081120  RH  019%=      5-min Rain = 0
KANS 111840Z 03012G18KT 11/M12 A303 RMK A01 T01091119  RH  019%=      5-min Rain = 0
KANS 111845Z 03010KT 11/M12 A3029 RMK A01 T01091115  RH  020%=      5-min Rain = 0
KANS 111850Z 04010G15KT 11/M12 A3029 RMK A01 T01121116  RH  019%=      5-min Rain = 0
KANS 111855Z 04013KT 11/M12 A3029 RMK A01 T01121117  RH  019%=      5-min Rain = 0
KANS 111900Z 04012KT 11/M12 A3029 RMK A01 T01111116  RH  019%=      5-min Rain = 0
KANS 111905Z 03012G17KT 11/M12 A3029 RMK A01 T01121117  RH  019%=      5-min Rain = 0
KANS 111910Z 02012KT 11/M12 A3029 RMK A01 T01131118  RH  019%=      5-min Rain = 0
KANS 111915Z 02012G17KT 11/M12 A3029 RMK A01 T01141115  RH  019%=      5-min Rain = 0
KANS 111920Z 03014KT 11/M12 A3029 RMK A01 T01121115  RH  019%=      5-min Rain = 0
KANS 111925Z 02014G20KT 11/M12 A3028 RMK A01 T01121119  RH  019%=      5-min Rain = 0
KANS 111930Z 03012G17KT 11/M13 A3028 RMK A01 T01141125  RH  018%=      5-min Rain = 0
KANS 111935Z 03014KT 11/M13 A3028 RMK A01 T01141131  RH  017%=      5-min Rain = 0
KANS 111940Z 03014KT 12/M13 A3028 RMK A01 T01151128  RH  017%=      5-min Rain = 0
KANS 111945Z 02012KT 12/M13 A3028 RMK A01 T01151125  RH  018%=      5-min Rain = 0
KANS 111950Z 03014KT 12/M13 A3028 RMK A01 T01151125  RH  018%=      5-min Rain = 0
KANS 111955Z 03013G19KT 11/M13 A3028 RMK A01 T01141127  RH  017%=      5-min Rain = 0
KANS 112000Z 03013G19KT 12/M13 A3028 RMK A01 T01161126  RH  017%=      5-min Rain = 0
KANS 112005Z 02014G19KT 12/M12 A3028 RMK A01 T01161123  RH  018%=      5-min Rain = 0
KANS 112010Z 02015KT 12/M12 A3027 RMK A01 T01181122  RH  018%=      5-min Rain = 0
KANS 112015Z 03013G18KT 12/M12 A3027 RMK A01 T01201124  RH  017%=      5-min Rain = 0
KANS 112020Z 03016KT 12/M13 A3027 RMK A01 T01221125  RH  017%=      5-min Rain = 0
KANS 112025Z 03014G20KT 12/M12 A3027 RMK A01 T01221123  RH  017%=      5-min Rain = 0
KANS 112030Z 04014G19KT 12/M12 A3027 RMK A01 T01221124  RH  017%=      5-min Rain = 0
KANS 112035Z 04016G21KT 13/M12 A3026 RMK A01 T01251122  RH  017%=      5-min Rain = 0
KANS 112040Z 04014G19KT 13/M12 A3026 RMK A01 T01261121  RH  017%=      5-min Rain = 0
KANS 112045Z 03014G21KT 13/M12 A3026 RMK A01 T01271122  RH  017%=      5-min Rain = 0
KANS 112050Z 02016G23KT 13/M12 A3026 RMK A01 T01321120  RH  016%=      5-min Rain = 0
KANS 112055Z 03016G22KT 13/M11 A3026 RMK A01 T01311113  RH  017%=      5-min Rain = 0
KANS 112100Z 03015KT 13/M10 A3026 RMK A01 T01301101  RH  019%=      5-min Rain = 0
KANS 112105Z 04013KT 13/M10 A3026 RMK A01 T01281095  RH  020%=      5-min Rain = 0
KANS 112110Z 04013G19KT 13/M09 A3026 RMK A01 T01251090  RH  022%=      5-min Rain = 0
KANS 112115Z 03013KT 13/M08 A3026 RMK A01 T01251084  RH  023%=      5-min Rain = 0
KANS 112120Z 04012G17KT 13/M08 A3027 RMK A01 T01261081  RH  023%=      5-min Rain = 0
KANS 112125Z 03013KT 12/M08 A3026 RMK A01 T01241082  RH  023%=      5-min Rain = 0
KANS 112130Z 04012KT 12/M08 A3026 RMK A01 T01241082  RH  023%=      5-min Rain = 0
KANS 112135Z 04012KT 13/M08 A3026 RMK A01 T01251083  RH  023%=      5-min Rain = 0
KANS 112140Z 04011KT 13/M09 A3026 RMK A01 T01251086  RH  022%=      5-min Rain = 0
KANS 112145Z 04013G21KT 12/M09 A3026 RMK A01 T01241087  RH  022%=      5-min Rain = 0
KANS 112150Z 03012G17KT 12/M09 A3026 RMK A01 T01231089  RH  022%=      5-min Rain = 0
KANS 112155Z 03012G18KT 12/M09 A3026 RMK A01 T01241090  RH  022%=      5-min Rain = 0
KANS 112200Z 04012KT 12/M09 A3026 RMK A01 T01241090  RH  022%=      5-min Rain = 0
KANS 112205Z 02013G18KT 13/M09 A3026 RMK A01 T01251092  RH  021%=      5-min Rain = 0
KANS 112210Z 02010G16KT 12/M09 A3026 RMK A01 T01231092  RH  022%=      5-min Rain = 0
KANS 112215Z 03013KT 12/M09 A3026 RMK A01 T01231092  RH  022%=      5-min Rain = 0
KANS 112220Z 03013KT 12/M09 A3026 RMK A01 T01231088  RH  022%=      5-min Rain = 0
KANS 112225Z 02013KT 12/M09 A3026 RMK A01 T01221086  RH  023%=      5-min Rain = 0
KANS 112230Z 02012KT 12/M09 A3026 RMK A01 T01221085  RH  023%=      5-min Rain = 0
KANS 112235Z 03010G15KT 12/M09 A3026 RMK A01 T01231085  RH  023%=      5-min Rain = 0
KANS 112240Z 03010G17KT 13/M08 A3026 RMK A01 T01261083  RH  023%=      5-min Rain = 0
KANS 112245Z 03014KT 13/M08 A3025 RMK A01 T01261077  RH  024%=      5-min Rain = 0
KANS 112250Z 03012KT 13/M08 A3025 RMK A01 T01281076  RH  024%=      5-min Rain = 0
KANS 112255Z 02012KT 13/M08 A3025 RMK A01 T01301077  RH  023%=      5-min Rain = 0
KANS 112300Z 04011G16KT 13/M08 A3025 RMK A01 T01271077  RH  024%=      5-min Rain = 0
KANS 112305Z 03012G17KT 13/M08 A3025 RMK A01 T01251078  RH  024%=      5-min Rain = 0
KANS 112310Z 02011KT 12/M08 A3026 RMK A01 T01241081  RH  023%=      5-min Rain = 0
KANS 112315Z 01012KT 12/M08 A3026 RMK A01 T01241083  RH  023%=      5-min Rain = 0
KANS 112320Z 02010KT 13/M09 A3026 RMK A01 T01251086  RH  022%=      5-min Rain = 0
KANS 112325Z 03010KT 13/M09 A3027 RMK A01 T01261089  RH  022%=      5-min Rain = 0
KANS 112330Z 03009KT 13/M09 A3027 RMK A01 T01261092  RH  021%=      5-min Rain = 0
KANS 112335Z 02011KT 13/M09 A3027 RMK A01 T01271094  RH  021%=      5-min Rain = 0
KANS 112340Z 01010KT 13/M09 A3026 RMK A01 T01281093  RH  021%=      5-min Rain = 0
KANS 112345Z 02010KT 13/M09 A3027 RMK A01 T01281092  RH  021%=      5-min Rain = 0
KANS 112350Z 03010KT 13/M09 A3027 RMK A01 T01261091  RH  021%=      5-min Rain = 0
KANS 112355Z 03010KT 13/M09 A3027 RMK A01 T01251089  RH  022%=      5-min Rain = 0
KANS 120000Z 03009KT 12/M09 A3027 RMK A01 T01241088  RH  022%=      5-min Rain = 0
KANS 120005Z 03009KT 12/M09 A3027 RMK A01 T01231088  RH  022%=      5-min Rain = 0
KANS 120010Z 02010KT 12/M09 A3027 RMK A01 T01221088  RH  022%=      5-min Rain = 0
KANS 120015Z 02010KT 12/M09 A3027 RMK A01 T01221089  RH  022%=      5-min Rain = 0
KANS 120020Z 02010KT 12/M09 A3027 RMK A01 T01211089  RH  022%=      5-min Rain = 0
KANS 120025Z 02009KT 12/M09 A3027 RMK A01 T01201091  RH  022%=      5-min Rain = 0
KANS 120030Z 02010KT 12/M09 A3027 RMK A01 T01191092  RH  022%=      5-min Rain = 0
KANS 120035Z 02007KT 12/M09 A3027 RMK A01 T01191091  RH  022%=      5-min Rain = 0
KANS 120040Z 01008KT 12/M09 A3028 RMK A01 T01181091  RH  022%=      5-min Rain = 0
KANS 120045Z 01007KT 12/M09 A3028 RMK A01 T01181090  RH  023%=      5-min Rain = 0
KANS 120050Z 01008KT 12/M09 A3028 RMK A01 T01171087  RH  023%=      5-min Rain = 0
KANS 120055Z 01007KT 12/M09 A3028 RMK A01 T01161085  RH  024%=      5-min Rain = 0
KANS 120100Z 01007KT 11/M08 A3029 RMK A01 T01141082  RH  025%=      5-min Rain = 0
KANS 120105Z 01006KT 11/M08 A3029 RMK A01 T01121080  RH  026%=      5-min Rain = 0
KANS 120110Z 01006KT 11/M08 A3029 RMK A01 T01101078  RH  026%=      5-min Rain = 0
KANS 120115Z 01005KT 11/M08 A3029 RMK A01 T01071078  RH  027%=      5-min Rain = 0
KANS 120120Z 01005KT 10/M08 A3029 RMK A01 T01041078  RH  027%=      5-min Rain = 0
KANS 120125Z 01005KT 10/M08 A3029 RMK A01 T01011078  RH  028%=      5-min Rain = 0
KANS 120130Z 00004KT 10/M08 A3029 RMK A01 T00971079  RH  028%=      5-min Rain = 0
KANS 120135Z 36004KT 09/M08 A3029 RMK A01 T00941079  RH  029%=      5-min Rain = 0
KANS 120140Z 35004KT 09/M08 A3029 RMK A01 T00911079  RH  029%=      5-min Rain = 0
KANS 120145Z 34004KT 09/M08 A3029 RMK A01 T00891080  RH  030%=      5-min Rain = 0
KANS 120150Z 34004KT 09/M08 A303 RMK A01 T00861080  RH  030%=      5-min Rain = 0
KANS 120155Z 35004KT 09/M08 A303 RMK A01 T00851079  RH  031%=      5-min Rain = 0
KANS 120200Z 34005KT 08/M08 A303 RMK A01 T00841079  RH  031%=      5-min Rain = 0
KANS 120205Z 33005KT 08/M08 A303 RMK A01 T00821079  RH  031%=      5-min Rain = 0
KANS 120210Z 32004KT 08/M08 A303 RMK A01 T00811078  RH  032%=      5-min Rain = 0
KANS 120215Z 32004KT 08/M08 A303 RMK A01 T00831076  RH  032%=      5-min Rain = 0
KANS 120220Z 32005KT 09/M08 A3031 RMK A01 T00851078  RH  031%=      5-min Rain = 0
KANS 120225Z 31005KT 09/M08 A3031 RMK A01 T00871077  RH  031%=      5-min Rain = 0
KANS 120230Z 30005KT 09/M08 A3031 RMK A01 T00881077  RH  031%=      5-min Rain = 0
KANS 120235Z 31005KT 09/M08 A3031 RMK A01 T00881077  RH  031%=      5-min Rain = 0
KANS 120240Z 31005KT 09/M08 A3031 RMK A01 T00881077  RH  031%=      5-min Rain = 0
KANS 120245Z 32005KT 09/M08 A3031 RMK A01 T00871077  RH  031%=      5-min Rain = 0
KANS 120250Z 32005KT 09/M08 A3031 RMK A01 T00851077  RH  031%=      5-min Rain = 0
KANS 120255Z 31004KT 08/M08 A3031 RMK A01 T00831076  RH  032%=      5-min Rain = 0
KANS 120300Z 32005KT 08/M08 A3031 RMK A01 T00811076  RH  032%=      5-min Rain = 0
KANS 120305Z 31005KT 08/M08 A3032 RMK A01 T00791077  RH  033%=      5-min Rain = 0
KANS 120310Z 31006KT 08/M08 A3032 RMK A01 T00791077  RH  033%=      5-min Rain = 0
KANS 120315Z 31005KT 08/M08 A3032 RMK A01 T00821077  RH  032%=      5-min Rain = 0
KANS 120320Z 31005KT 08/M08 A3032 RMK A01 T00841077  RH  032%=      5-min Rain = 0
KANS 120325Z 31005KT 09/M08 A3032 RMK A01 T00851076  RH  032%=      5-min Rain = 0
KANS 120330Z 31005KT 08/M08 A3032 RMK A01 T00841075  RH  032%=      5-min Rain = 0
KANS 120335Z 31005KT 08/M08 A3033 RMK A01 T00841075  RH  032%=      5-min Rain = 0
KANS 120340Z 31005KT 08/M07 A3033 RMK A01 T00841074  RH  032%=      5-min Rain = 0
KANS 120345Z 31005KT 08/M08 A3033 RMK A01 T00831075  RH  032%=      5-min Rain = 0
KANS 120350Z 30005KT 08/M08 A3034 RMK A01 T00831076  RH  032%=      5-min Rain = 0
KANS 120355Z 30005KT 09/M08 A3034 RMK A01 T00861077  RH  031%=      5-min Rain = 0
KANS 120400Z 30005KT 09/M08 A3034 RMK A01 T00881077  RH  031%=      5-min Rain = 0
KANS 120405Z 29004KT 09/M08 A3034 RMK A01 T00881077  RH  031%=      5-min Rain = 0
KANS 120410Z 29005KT 09/M08 A3034 RMK A01 T00861078  RH  031%=      5-min Rain = 0
KANS 120415Z 30005KT 09/M08 A3034 RMK A01 T00851080  RH  031%=      5-min Rain = 0
KANS 120420Z 30005KT 09/M08 A3034 RMK A01 T00851081  RH  030%=      5-min Rain = 0
KANS 120425Z 31005KT 08/M08 A3034 RMK A01 T00841082  RH  030%=      5-min Rain = 0
KANS 120430Z 31006KT 08/M08 A3034 RMK A01 T00821081  RH  031%=      5-min Rain = 0
KANS 120435Z 31005KT 08/M08 A3034 RMK A01 T00811081  RH  031%=      5-min Rain = 0
KANS 120440Z 31005KT 08/M08 A3034 RMK A01 T00811082  RH  031%=      5-min Rain = 0
KANS 120445Z 31005KT 08/M08 A3034 RMK A01 T00811081  RH  031%=      5-min Rain = 0
KANS 120450Z 31005KT 08/M08 A3034 RMK A01 T00801078  RH  032%=      5-min Rain = 0
KANS 120455Z 32004KT 08/M08 A3034 RMK A01 T00771077  RH  033%=      5-min Rain = 0

Page generated in 0.0089 seconds.